sensor_id;sensor_type;location;lat;lon;timestamp;P1;durP1;ratioP1;P2;durP2;ratioP2
72369;SDS011;60343;-32.030;115.880;2022-11-23T00:01:16;1.77;;;0.30;;
72369;SDS011;60343;-32.030;115.880;2022-11-23T00:03:50;3.63;;;0.60;;
72369;SDS011;60343;-32.030;115.880;2022-11-23T00:06:19;2.83;;;0.52;;
72369;SDS011;60343;-32.030;115.880;2022-11-23T00:08:47;3.35;;;0.70;;
72369;SDS011;60343;-32.030;115.880;2022-11-23T00:11:15;3.83;;;0.80;;
72369;SDS011;60343;-32.030;115.880;2022-11-23T00:13:44;4.18;;;0.70;;
72369;SDS011;60343;-32.030;115.880;2022-11-23T00:16:12;5.75;;;0.80;;
72369;SDS011;60343;-32.030;115.880;2022-11-23T00:18:41;5.65;;;0.90;;
72369;SDS011;60343;-32.030;115.880;2022-11-23T00:21:14;4.47;;;0.60;;
72369;SDS011;60343;-32.030;115.880;2022-11-23T00:23:43;7.55;;;1.10;;
72369;SDS011;60343;-32.030;115.880;2022-11-23T00:26:11;5.65;;;1.00;;
72369;SDS011;60343;-32.030;115.880;2022-11-23T00:28:41;6.13;;;1.02;;
72369;SDS011;60343;-32.030;115.880;2022-11-23T00:31:09;5.93;;;1.00;;
72369;SDS011;60343;-32.030;115.880;2022-11-23T00:33:38;5.50;;;0.95;;
72369;SDS011;60343;-32.030;115.880;2022-11-23T00:36:06;5.57;;;1.05;;
72369;SDS011;60343;-32.030;115.880;2022-11-23T00:38:42;6.80;;;1.02;;
72369;SDS011;60343;-32.030;115.880;2022-11-23T00:41:20;6.32;;;0.95;;
72369;SDS011;60343;-32.030;115.880;2022-11-23T00:44:24;5.68;;;0.85;;
72369;SDS011;60343;-32.030;115.880;2022-11-23T00:46:46;8.55;;;1.40;;
72369;SDS011;60343;-32.030;115.880;2022-11-23T00:49:14;9.02;;;1.08;;
72369;SDS011;60343;-32.030;115.880;2022-11-23T00:51:42;7.63;;;1.00;;
72369;SDS011;60343;-32.030;115.880;2022-11-23T00:54:15;8.90;;;1.27;;
72369;SDS011;60343;-32.030;115.880;2022-11-23T00:56:43;11.00;;;1.20;;
72369;SDS011;60343;-32.030;115.880;2022-11-23T00:59:10;9.98;;;1.30;;
72369;SDS011;60343;-32.030;115.880;2022-11-23T01:01:38;11.20;;;1.70;;
72369;SDS011;60343;-32.030;115.880;2022-11-23T01:04:06;19.48;;;2.65;;
72369;SDS011;60343;-32.030;115.880;2022-11-23T01:06:34;18.17;;;2.17;;
72369;SDS011;60343;-32.030;115.880;2022-11-23T01:09:04;15.88;;;1.95;;
72369;SDS011;60343;-32.030;115.880;2022-11-23T01:11:38;13.75;;;1.70;;
72369;SDS011;60343;-32.030;115.880;2022-11-23T01:14:06;12.40;;;2.10;;
72369;SDS011;60343;-32.030;115.880;2022-11-23T01:16:35;15.80;;;1.92;;
72369;SDS011;60343;-32.030;115.880;2022-11-23T01:19:05;14.63;;;2.28;;
72369;SDS011;60343;-32.030;115.880;2022-11-23T01:21:33;11.98;;;2.03;;
72369;SDS011;60343;-32.030;115.880;2022-11-23T01:24:03;12.30;;;1.90;;
72369;SDS011;60343;-32.030;115.880;2022-11-23T01:26:31;14.88;;;2.08;;
72369;SDS011;60343;-32.030;115.880;2022-11-23T01:29:05;15.63;;;2.63;;
72369;SDS011;60343;-32.030;115.880;2022-11-23T01:31:33;18.98;;;3.25;;
72369;SDS011;60343;-32.030;115.880;2022-11-23T01:34:01;20.00;;;2.50;;
72369;SDS011;60343;-32.030;115.880;2022-11-23T01:36:29;17.30;;;2.42;;
72369;SDS011;60343;-32.030;115.880;2022-11-23T01:38:58;17.13;;;2.40;;
72369;SDS011;60343;-32.030;115.880;2022-11-23T01:41:26;16.98;;;2.17;;
72369;SDS011;60343;-32.030;115.880;2022-11-23T01:44:17;20.63;;;2.55;;
72369;SDS011;60343;-32.030;115.880;2022-11-23T01:46:51;18.52;;;2.25;;
72369;SDS011;60343;-32.030;115.880;2022-11-23T01:49:19;17.73;;;2.00;;
72369;SDS011;60343;-32.030;115.880;2022-11-23T01:51:48;18.33;;;2.90;;
72369;SDS011;60343;-32.030;115.880;2022-11-23T01:54:20;12.55;;;1.83;;
72369;SDS011;60343;-32.030;115.880;2022-11-23T01:56:50;17.23;;;2.78;;
72369;SDS011;60343;-32.030;115.880;2022-11-23T01:59:28;17.15;;;2.88;;
72369;SDS011;60343;-32.030;115.880;2022-11-23T02:01:58;17.20;;;2.05;;
72369;SDS011;60343;-32.030;115.880;2022-11-23T02:04:28;19.20;;;3.10;;
72369;SDS011;60343;-32.030;115.880;2022-11-23T02:06:59;18.42;;;2.00;;
72369;SDS011;60343;-32.030;115.880;2022-11-23T02:09:28;25.33;;;2.50;;
72369;SDS011;60343;-32.030;115.880;2022-11-23T02:11:58;14.65;;;2.42;;
72369;SDS011;60343;-32.030;115.880;2022-11-23T02:14:31;19.10;;;2.33;;
72369;SDS011;60343;-32.030;115.880;2022-11-23T02:16:59;17.95;;;2.70;;
72369;SDS011;60343;-32.030;115.880;2022-11-23T02:19:29;17.20;;;2.22;;
72369;SDS011;60343;-32.030;115.880;2022-11-23T02:22:04;19.10;;;2.28;;
72369;SDS011;60343;-32.030;115.880;2022-11-23T02:24:38;21.00;;;2.90;;
72369;SDS011;60343;-32.030;115.880;2022-11-23T02:27:17;17.83;;;2.72;;
72369;SDS011;60343;-32.030;115.880;2022-11-23T02:29:45;14.93;;;2.35;;
72369;SDS011;60343;-32.030;115.880;2022-11-23T02:32:17;18.17;;;2.10;;
72369;SDS011;60343;-32.030;115.880;2022-11-23T02:34:47;20.65;;;2.58;;
72369;SDS011;60343;-32.030;115.880;2022-11-23T02:37:14;13.63;;;2.28;;
72369;SDS011;60343;-32.030;115.880;2022-11-23T02:39:43;14.23;;;2.45;;
72369;SDS011;60343;-32.030;115.880;2022-11-23T02:42:18;18.23;;;2.40;;
72369;SDS011;60343;-32.030;115.880;2022-11-23T02:44:49;13.23;;;2.10;;
72369;SDS011;60343;-32.030;115.880;2022-11-23T02:47:25;15.18;;;2.00;;
72369;SDS011;60343;-32.030;115.880;2022-11-23T02:49:53;17.40;;;2.25;;
72369;SDS011;60343;-32.030;115.880;2022-11-23T02:52:20;26.25;;;3.17;;
72369;SDS011;60343;-32.030;115.880;2022-11-23T02:54:48;17.40;;;2.38;;
72369;SDS011;60343;-32.030;115.880;2022-11-23T02:57:21;20.15;;;2.30;;
72369;SDS011;60343;-32.030;115.880;2022-11-23T02:59:49;19.35;;;2.40;;
72369;SDS011;60343;-32.030;115.880;2022-11-23T03:02:16;16.70;;;2.10;;
72369;SDS011;60343;-32.030;115.880;2022-11-23T03:04:44;17.15;;;2.20;;
72369;SDS011;60343;-32.030;115.880;2022-11-23T03:07:12;19.05;;;2.30;;
72369;SDS011;60343;-32.030;115.880;2022-11-23T03:09:39;13.02;;;2.33;;
72369;SDS011;60343;-32.030;115.880;2022-11-23T03:12:07;16.08;;;2.10;;
72369;SDS011;60343;-32.030;115.880;2022-11-23T03:14:40;20.67;;;2.20;;
72369;SDS011;60343;-32.030;115.880;2022-11-23T03:17:08;19.88;;;2.53;;
72369;SDS011;60343;-32.030;115.880;2022-11-23T03:19:35;13.35;;;2.35;;
72369;SDS011;60343;-32.030;115.880;2022-11-23T03:22:03;17.83;;;2.42;;
72369;SDS011;60343;-32.030;115.880;2022-11-23T03:24:31;18.80;;;2.10;;
72369;SDS011;60343;-32.030;115.880;2022-11-23T03:26:58;15.98;;;1.95;;
72369;SDS011;60343;-32.030;115.880;2022-11-23T03:29:26;20.77;;;2.60;;
72369;SDS011;60343;-32.030;115.880;2022-11-23T03:31:59;14.57;;;2.20;;
72369;SDS011;60343;-32.030;115.880;2022-11-23T03:34:27;15.05;;;1.95;;
72369;SDS011;60343;-32.030;115.880;2022-11-23T03:36:54;17.70;;;2.20;;
72369;SDS011;60343;-32.030;115.880;2022-11-23T03:39:22;18.98;;;2.67;;
72369;SDS011;60343;-32.030;115.880;2022-11-23T03:41:50;19.45;;;2.53;;
72369;SDS011;60343;-32.030;115.880;2022-11-23T03:44:18;15.82;;;2.40;;
72369;SDS011;60343;-32.030;115.880;2022-11-23T03:46:45;14.32;;;2.28;;
72369;SDS011;60343;-32.030;115.880;2022-11-23T03:49:20;18.20;;;2.10;;
72369;SDS011;60343;-32.030;115.880;2022-11-23T03:51:48;17.63;;;2.20;;
72369;SDS011;60343;-32.030;115.880;2022-11-23T03:54:16;13.95;;;1.92;;
72369;SDS011;60343;-32.030;115.880;2022-11-23T03:56:43;14.13;;;1.88;;
72369;SDS011;60343;-32.030;115.880;2022-11-23T03:59:11;19.33;;;2.38;;
72369;SDS011;60343;-32.030;115.880;2022-11-23T04:01:38;16.08;;;2.25;;
72369;SDS011;60343;-32.030;115.880;2022-11-23T04:04:06;20.17;;;2.85;;
72369;SDS011;60343;-32.030;115.880;2022-11-23T04:06:39;15.35;;;2.20;;
72369;SDS011;60343;-32.030;115.880;2022-11-23T04:09:07;13.75;;;2.17;;
72369;SDS011;60343;-32.030;115.880;2022-11-23T04:11:36;22.13;;;2.70;;
72369;SDS011;60343;-32.030;115.880;2022-11-23T04:14:04;17.27;;;2.28;;
72369;SDS011;60343;-32.030;115.880;2022-11-23T04:16:31;16.98;;;2.50;;
72369;SDS011;60343;-32.030;115.880;2022-11-23T04:18:59;17.50;;;2.70;;
72369;SDS011;60343;-32.030;115.880;2022-11-23T04:21:27;18.00;;;2.58;;
72369;SDS011;60343;-32.030;115.880;2022-11-23T04:24:00;16.77;;;2.47;;
72369;SDS011;60343;-32.030;115.880;2022-11-23T04:26:28;16.77;;;2.60;;
72369;SDS011;60343;-32.030;115.880;2022-11-23T04:28:55;20.95;;;2.50;;
72369;SDS011;60343;-32.030;115.880;2022-11-23T04:31:23;18.65;;;2.38;;
72369;SDS011;60343;-32.030;115.880;2022-11-23T04:33:51;13.75;;;1.95;;
72369;SDS011;60343;-32.030;115.880;2022-11-23T04:36:19;19.45;;;2.47;;
72369;SDS011;60343;-32.030;115.880;2022-11-23T04:38:47;23.05;;;2.50;;
72369;SDS011;60343;-32.030;115.880;2022-11-23T04:41:21;16.63;;;2.25;;
72369;SDS011;60343;-32.030;115.880;2022-11-23T04:43:48;17.88;;;2.30;;
72369;SDS011;60343;-32.030;115.880;2022-11-23T04:46:16;19.63;;;2.40;;
72369;SDS011;60343;-32.030;115.880;2022-11-23T04:48:44;18.25;;;2.22;;
72369;SDS011;60343;-32.030;115.880;2022-11-23T04:51:12;17.05;;;2.40;;
72369;SDS011;60343;-32.030;115.880;2022-11-23T04:53:39;16.50;;;2.28;;
72369;SDS011;60343;-32.030;115.880;2022-11-23T04:56:07;18.13;;;2.75;;
72369;SDS011;60343;-32.030;115.880;2022-11-23T04:58:40;18.13;;;2.60;;
72369;SDS011;60343;-32.030;115.880;2022-11-23T05:01:07;17.50;;;2.20;;
72369;SDS011;60343;-32.030;115.880;2022-11-23T05:03:35;19.40;;;2.40;;
72369;SDS011;60343;-32.030;115.880;2022-11-23T05:06:03;16.92;;;2.20;;
72369;SDS011;60343;-32.030;115.880;2022-11-23T05:08:31;15.00;;;2.50;;
72369;SDS011;60343;-32.030;115.880;2022-11-23T05:10:58;21.65;;;2.70;;
72369;SDS011;60343;-32.030;115.880;2022-11-23T05:13:26;15.70;;;1.98;;
72369;SDS011;60343;-32.030;115.880;2022-11-23T05:15:59;19.25;;;2.58;;
72369;SDS011;60343;-32.030;115.880;2022-11-23T05:18:27;16.05;;;2.20;;
72369;SDS011;60343;-32.030;115.880;2022-11-23T05:20:55;17.95;;;2.53;;
72369;SDS011;60343;-32.030;115.880;2022-11-23T05:23:22;17.90;;;2.45;;
72369;SDS011;60343;-32.030;115.880;2022-11-23T05:25:50;17.52;;;2.15;;
72369;SDS011;60343;-32.030;115.880;2022-11-23T05:28:18;17.33;;;2.47;;
72369;SDS011;60343;-32.030;115.880;2022-11-23T05:30:47;11.75;;;1.92;;
72369;SDS011;60343;-32.030;115.880;2022-11-23T05:33:20;19.40;;;2.42;;
72369;SDS011;60343;-32.030;115.880;2022-11-23T05:35:48;16.17;;;2.42;;
72369;SDS011;60343;-32.030;115.880;2022-11-23T05:38:15;14.98;;;2.42;;
72369;SDS011;60343;-32.030;115.880;2022-11-23T05:40:44;24.55;;;2.78;;
72369;SDS011;60343;-32.030;115.880;2022-11-23T05:43:12;14.27;;;2.20;;
72369;SDS011;60343;-32.030;115.880;2022-11-23T05:45:39;13.32;;;1.95;;
72369;SDS011;60343;-32.030;115.880;2022-11-23T05:48:08;16.98;;;2.25;;
72369;SDS011;60343;-32.030;115.880;2022-11-23T05:50:41;13.23;;;1.90;;
72369;SDS011;60343;-32.030;115.880;2022-11-23T05:53:09;17.67;;;2.20;;
72369;SDS011;60343;-32.030;115.880;2022-11-23T05:55:37;16.80;;;2.45;;
72369;SDS011;60343;-32.030;115.880;2022-11-23T05:58:04;17.05;;;2.35;;
72369;SDS011;60343;-32.030;115.880;2022-11-23T06:00:32;14.85;;;2.22;;
72369;SDS011;60343;-32.030;115.880;2022-11-23T06:02:59;11.70;;;2.10;;
72369;SDS011;60343;-32.030;115.880;2022-11-23T06:05:27;11.70;;;1.85;;
72369;SDS011;60343;-32.030;115.880;2022-11-23T06:08:01;18.33;;;2.30;;
72369;SDS011;60343;-32.030;115.880;2022-11-23T06:10:28;16.67;;;1.90;;
72369;SDS011;60343;-32.030;115.880;2022-11-23T06:13:01;15.02;;;1.98;;
72369;SDS011;60343;-32.030;115.880;2022-11-23T06:15:29;17.65;;;2.08;;
72369;SDS011;60343;-32.030;115.880;2022-11-23T06:17:58;18.05;;;2.50;;
72369;SDS011;60343;-32.030;115.880;2022-11-23T06:20:26;15.45;;;2.83;;
72369;SDS011;60343;-32.030;115.880;2022-11-23T06:22:54;13.73;;;2.13;;
72369;SDS011;60343;-32.030;115.880;2022-11-23T06:25:27;15.05;;;2.10;;
72369;SDS011;60343;-32.030;115.880;2022-11-23T06:27:55;17.27;;;2.35;;
72369;SDS011;60343;-32.030;115.880;2022-11-23T06:30:25;13.02;;;2.08;;
72369;SDS011;60343;-32.030;115.880;2022-11-23T06:32:53;14.68;;;1.98;;
72369;SDS011;60343;-32.030;115.880;2022-11-23T06:35:21;21.88;;;2.78;;
72369;SDS011;60343;-32.030;115.880;2022-11-23T06:37:49;14.73;;;2.05;;
72369;SDS011;60343;-32.030;115.880;2022-11-23T06:40:24;16.15;;;2.10;;
72369;SDS011;60343;-32.030;115.880;2022-11-23T06:42:57;17.25;;;2.10;;
72369;SDS011;60343;-32.030;115.880;2022-11-23T06:45:25;16.95;;;2.20;;
72369;SDS011;60343;-32.030;115.880;2022-11-23T06:47:53;14.85;;;1.92;;
72369;SDS011;60343;-32.030;115.880;2022-11-23T06:50:21;14.82;;;2.00;;
72369;SDS011;60343;-32.030;115.880;2022-11-23T06:52:52;15.05;;;2.15;;
72369;SDS011;60343;-32.030;115.880;2022-11-23T06:55:26;13.98;;;1.92;;
72369;SDS011;60343;-32.030;115.880;2022-11-23T06:57:54;14.88;;;2.00;;
72369;SDS011;60343;-32.030;115.880;2022-11-23T07:00:22;14.75;;;2.30;;
72369;SDS011;60343;-32.030;115.880;2022-11-23T07:02:50;15.30;;;1.98;;
72369;SDS011;60343;-32.030;115.880;2022-11-23T07:05:19;13.48;;;1.75;;
72369;SDS011;60343;-32.030;115.880;2022-11-23T07:07:47;13.10;;;2.15;;
72369;SDS011;60343;-32.030;115.880;2022-11-23T07:10:14;16.40;;;2.10;;
72369;SDS011;60343;-32.030;115.880;2022-11-23T07:12:48;13.30;;;1.92;;
72369;SDS011;60343;-32.030;115.880;2022-11-23T07:15:16;15.85;;;1.60;;
72369;SDS011;60343;-32.030;115.880;2022-11-23T07:17:44;13.18;;;1.75;;
72369;SDS011;60343;-32.030;115.880;2022-11-23T07:20:11;14.30;;;2.03;;
72369;SDS011;60343;-32.030;115.880;2022-11-23T07:22:39;15.93;;;1.77;;
72369;SDS011;60343;-32.030;115.880;2022-11-23T07:25:07;15.95;;;2.38;;
72369;SDS011;60343;-32.030;115.880;2022-11-23T07:27:35;12.82;;;1.77;;
72369;SDS011;60343;-32.030;115.880;2022-11-23T07:30:09;11.88;;;1.90;;
72369;SDS011;60343;-32.030;115.880;2022-11-23T07:32:37;14.90;;;1.70;;
72369;SDS011;60343;-32.030;115.880;2022-11-23T07:35:05;12.75;;;1.65;;
72369;SDS011;60343;-32.030;115.880;2022-11-23T07:37:33;13.43;;;1.77;;
72369;SDS011;60343;-32.030;115.880;2022-11-23T07:40:00;11.98;;;1.38;;
72369;SDS011;60343;-32.030;115.880;2022-11-23T07:42:28;10.90;;;1.63;;
72369;SDS011;60343;-32.030;115.880;2022-11-23T07:44:56;12.13;;;1.80;;
72369;SDS011;60343;-32.030;115.880;2022-11-23T07:50:02;12.30;;;1.73;;
72369;SDS011;60343;-32.030;115.880;2022-11-23T07:52:30;14.95;;;1.60;;
72369;SDS011;60343;-32.030;115.880;2022-11-23T07:54:58;13.60;;;1.75;;
72369;SDS011;60343;-32.030;115.880;2022-11-23T07:57:25;11.00;;;1.75;;
72369;SDS011;60343;-32.030;115.880;2022-11-23T07:59:53;12.02;;;1.70;;
72369;SDS011;60343;-32.030;115.880;2022-11-23T08:02:21;12.55;;;1.40;;
72369;SDS011;60343;-32.030;115.880;2022-11-23T08:04:54;10.95;;;1.48;;
72369;SDS011;60343;-32.030;115.880;2022-11-23T08:07:22;11.15;;;1.63;;
72369;SDS011;60343;-32.030;115.880;2022-11-23T08:09:49;16.75;;;2.10;;
72369;SDS011;60343;-32.030;115.880;2022-11-23T08:12:17;16.00;;;1.50;;
72369;SDS011;60343;-32.030;115.880;2022-11-23T08:14:44;15.30;;;1.63;;
72369;SDS011;60343;-32.030;115.880;2022-11-23T08:17:12;12.45;;;1.80;;
72369;SDS011;60343;-32.030;115.880;2022-11-23T08:19:40;10.80;;;1.42;;
72369;SDS011;60343;-32.030;115.880;2022-11-23T08:22:14;14.48;;;1.67;;
72369;SDS011;60343;-32.030;115.880;2022-11-23T08:24:42;9.77;;;1.40;;
72369;SDS011;60343;-32.030;115.880;2022-11-23T08:27:09;15.70;;;1.70;;
72369;SDS011;60343;-32.030;115.880;2022-11-23T08:29:37;14.23;;;1.73;;
72369;SDS011;60343;-32.030;115.880;2022-11-23T08:32:04;14.77;;;2.40;;
72369;SDS011;60343;-32.030;115.880;2022-11-23T08:34:32;14.45;;;2.00;;
72369;SDS011;60343;-32.030;115.880;2022-11-23T08:37:00;13.70;;;2.08;;
72369;SDS011;60343;-32.030;115.880;2022-11-23T08:39:34;16.73;;;2.15;;
72369;SDS011;60343;-32.030;115.880;2022-11-23T08:42:01;13.35;;;1.92;;
72369;SDS011;60343;-32.030;115.880;2022-11-23T08:44:29;15.27;;;1.70;;
72369;SDS011;60343;-32.030;115.880;2022-11-23T08:46:57;15.45;;;1.70;;
72369;SDS011;60343;-32.030;115.880;2022-11-23T08:49:25;16.85;;;2.10;;
72369;SDS011;60343;-32.030;115.880;2022-11-23T08:51:53;15.88;;;2.10;;
72369;SDS011;60343;-32.030;115.880;2022-11-23T08:54:20;16.45;;;2.17;;
72369;SDS011;60343;-32.030;115.880;2022-11-23T08:56:54;14.38;;;2.00;;
72369;SDS011;60343;-32.030;115.880;2022-11-23T08:59:21;14.88;;;1.75;;
72369;SDS011;60343;-32.030;115.880;2022-11-23T09:01:49;15.88;;;2.08;;
72369;SDS011;60343;-32.030;115.880;2022-11-23T09:04:17;13.93;;;1.77;;
72369;SDS011;60343;-32.030;115.880;2022-11-23T09:06:44;18.00;;;1.90;;
72369;SDS011;60343;-32.030;115.880;2022-11-23T09:09:12;14.63;;;1.90;;
72369;SDS011;60343;-32.030;115.880;2022-11-23T09:11:39;16.90;;;1.75;;
72369;SDS011;60343;-32.030;115.880;2022-11-23T09:14:12;11.95;;;1.67;;
72369;SDS011;60343;-32.030;115.880;2022-11-23T09:16:40;16.95;;;1.60;;
72369;SDS011;60343;-32.030;115.880;2022-11-23T09:19:09;16.98;;;2.10;;
72369;SDS011;60343;-32.030;115.880;2022-11-23T09:21:38;13.82;;;2.65;;
72369;SDS011;60343;-32.030;115.880;2022-11-23T09:24:06;13.15;;;1.90;;
72369;SDS011;60343;-32.030;115.880;2022-11-23T09:26:34;15.65;;;1.48;;
72369;SDS011;60343;-32.030;115.880;2022-11-23T09:29:02;16.08;;;2.58;;
72369;SDS011;60343;-32.030;115.880;2022-11-23T09:31:37;16.25;;;1.92;;
72369;SDS011;60343;-32.030;115.880;2022-11-23T09:34:04;16.15;;;1.90;;
72369;SDS011;60343;-32.030;115.880;2022-11-23T09:36:32;14.95;;;1.92;;
72369;SDS011;60343;-32.030;115.880;2022-11-23T09:39:00;17.25;;;1.85;;
72369;SDS011;60343;-32.030;115.880;2022-11-23T09:41:38;15.30;;;2.08;;
72369;SDS011;60343;-32.030;115.880;2022-11-23T09:44:20;16.90;;;2.42;;
72369;SDS011;60343;-32.030;115.880;2022-11-23T09:47:06;13.27;;;2.30;;
72369;SDS011;60343;-32.030;115.880;2022-11-23T09:49:49;14.18;;;2.03;;
72369;SDS011;60343;-32.030;115.880;2022-11-23T09:52:24;17.08;;;2.03;;
72369;SDS011;60343;-32.030;115.880;2022-11-23T09:54:55;12.95;;;1.60;;
72369;SDS011;60343;-32.030;115.880;2022-11-23T09:57:27;17.05;;;2.28;;
72369;SDS011;60343;-32.030;115.880;2022-11-23T10:00:00;16.35;;;1.80;;
72369;SDS011;60343;-32.030;115.880;2022-11-23T10:02:38;15.75;;;1.83;;
72369;SDS011;60343;-32.030;115.880;2022-11-23T10:05:20;14.07;;;1.70;;
72369;SDS011;60343;-32.030;115.880;2022-11-23T10:07:56;15.65;;;2.10;;
72369;SDS011;60343;-32.030;115.880;2022-11-23T10:10:35;15.73;;;1.90;;
72369;SDS011;60343;-32.030;115.880;2022-11-23T10:19:23;16.73;;;2.17;;
72369;SDS011;60343;-32.030;115.880;2022-11-23T10:22:00;15.20;;;1.70;;
72369;SDS011;60343;-32.030;115.880;2022-11-23T10:24:38;13.05;;;1.77;;
72369;SDS011;60343;-32.030;115.880;2022-11-23T10:27:10;14.82;;;1.83;;
72369;SDS011;60343;-32.030;115.880;2022-11-23T10:29:41;14.88;;;1.80;;
72369;SDS011;60343;-32.030;115.880;2022-11-23T10:32:24;10.90;;;2.10;;
72369;SDS011;60343;-32.030;115.880;2022-11-23T10:35:07;12.30;;;1.70;;
72369;SDS011;60343;-32.030;115.880;2022-11-23T10:37:38;15.88;;;1.77;;
72369;SDS011;60343;-32.030;115.880;2022-11-23T10:40:10;9.75;;;1.42;;
72369;SDS011;60343;-32.030;115.880;2022-11-23T10:42:52;14.70;;;1.70;;
72369;SDS011;60343;-32.030;115.880;2022-11-23T10:45:24;9.13;;;1.33;;
72369;SDS011;60343;-32.030;115.880;2022-11-23T10:47:53;12.02;;;1.42;;
72369;SDS011;60343;-32.030;115.880;2022-11-23T10:50:29;11.23;;;1.02;;
72369;SDS011;60343;-32.030;115.880;2022-11-23T10:52:58;9.93;;;1.23;;
72369;SDS011;60343;-32.030;115.880;2022-11-23T10:55:45;14.32;;;1.23;;
72369;SDS011;60343;-32.030;115.880;2022-11-23T10:58:22;13.23;;;1.90;;
72369;SDS011;60343;-32.030;115.880;2022-11-23T11:00:58;15.82;;;2.05;;
72369;SDS011;60343;-32.030;115.880;2022-11-23T11:03:31;13.90;;;1.42;;
72369;SDS011;60343;-32.030;115.880;2022-11-23T11:06:05;12.57;;;1.65;;
72369;SDS011;60343;-32.030;115.880;2022-11-23T11:08:33;15.45;;;1.80;;
72369;SDS011;60343;-32.030;115.880;2022-11-23T11:11:20;11.85;;;1.63;;
72369;SDS011;60343;-32.030;115.880;2022-11-23T11:16:18;11.98;;;1.40;;
72369;SDS011;60343;-32.030;115.880;2022-11-23T11:18:46;11.70;;;1.40;;
72369;SDS011;60343;-32.030;115.880;2022-11-23T11:21:26;10.68;;;1.63;;
72369;SDS011;60343;-32.030;115.880;2022-11-23T11:23:59;12.98;;;1.52;;
72369;SDS011;60343;-32.030;115.880;2022-11-23T11:26:28;13.43;;;1.50;;
72369;SDS011;60343;-32.030;115.880;2022-11-23T11:28:59;15.10;;;1.85;;
72369;SDS011;60343;-32.030;115.880;2022-11-23T11:34:21;13.88;;;1.65;;
72369;SDS011;60343;-32.030;115.880;2022-11-23T11:37:00;15.63;;;1.80;;
72369;SDS011;60343;-32.030;115.880;2022-11-23T11:39:37;14.50;;;2.00;;
72369;SDS011;60343;-32.030;115.880;2022-11-23T11:42:12;17.67;;;1.52;;
72369;SDS011;60343;-32.030;115.880;2022-11-23T11:44:44;12.98;;;1.67;;
72369;SDS011;60343;-32.030;115.880;2022-11-23T11:47:18;16.15;;;1.88;;
72369;SDS011;60343;-32.030;115.880;2022-11-23T11:49:53;14.73;;;1.98;;
72369;SDS011;60343;-32.030;115.880;2022-11-23T11:52:31;14.98;;;2.10;;
72369;SDS011;60343;-32.030;115.880;2022-11-23T11:55:04;15.25;;;2.00;;
72369;SDS011;60343;-32.030;115.880;2022-11-23T11:57:38;16.15;;;1.85;;
72369;SDS011;60343;-32.030;115.880;2022-11-23T12:00:12;6.82;;;1.23;;
72369;SDS011;60343;-32.030;115.880;2022-11-23T12:02:48;21.23;;;2.38;;
72369;SDS011;60343;-32.030;115.880;2022-11-23T12:05:23;11.98;;;1.40;;
72369;SDS011;60343;-32.030;115.880;2022-11-23T12:08:00;11.80;;;1.77;;
72369;SDS011;60343;-32.030;115.880;2022-11-23T12:10:33;14.32;;;2.45;;
72369;SDS011;60343;-32.030;115.880;2022-11-23T12:13:08;12.57;;;1.75;;
72369;SDS011;60343;-32.030;115.880;2022-11-23T12:15:42;19.40;;;1.90;;
72369;SDS011;60343;-32.030;115.880;2022-11-23T12:18:17;16.73;;;2.00;;
72369;SDS011;60343;-32.030;115.880;2022-11-23T12:21:03;16.10;;;2.03;;
72369;SDS011;60343;-32.030;115.880;2022-11-23T12:23:50;14.57;;;1.85;;
72369;SDS011;60343;-32.030;115.880;2022-11-23T12:26:28;11.32;;;1.80;;
72369;SDS011;60343;-32.030;115.880;2022-11-23T12:29:10;15.45;;;1.63;;
72369;SDS011;60343;-32.030;115.880;2022-11-23T12:31:50;15.93;;;2.00;;
72369;SDS011;60343;-32.030;115.880;2022-11-23T12:34:32;14.30;;;1.63;;
72369;SDS011;60343;-32.030;115.880;2022-11-23T12:37:21;15.48;;;2.17;;
72369;SDS011;60343;-32.030;115.880;2022-11-23T12:40:13;12.13;;;1.40;;
72369;SDS011;60343;-32.030;115.880;2022-11-23T12:42:54;17.27;;;1.95;;
72369;SDS011;60343;-32.030;115.880;2022-11-23T12:45:30;14.40;;;1.60;;
72369;SDS011;60343;-32.030;115.880;2022-11-23T12:48:25;20.02;;;2.15;;
72369;SDS011;60343;-32.030;115.880;2022-11-23T12:51:04;17.05;;;2.00;;
72369;SDS011;60343;-32.030;115.880;2022-11-23T12:53:43;12.77;;;1.70;;
72369;SDS011;60343;-32.030;115.880;2022-11-23T12:56:27;16.13;;;2.03;;
72369;SDS011;60343;-32.030;115.880;2022-11-23T12:59:12;14.15;;;1.90;;
72369;SDS011;60343;-32.030;115.880;2022-11-23T13:01:42;16.65;;;2.30;;
72369;SDS011;60343;-32.030;115.880;2022-11-23T13:07:33;13.77;;;1.80;;
72369;SDS011;60343;-32.030;115.880;2022-11-23T13:10:19;12.48;;;1.80;;
72369;SDS011;60343;-32.030;115.880;2022-11-23T13:13:14;11.40;;;1.55;;
72369;SDS011;60343;-32.030;115.880;2022-11-23T13:16:09;13.50;;;1.60;;
72369;SDS011;60343;-32.030;115.880;2022-11-23T13:18:51;13.15;;;1.40;;
72369;SDS011;60343;-32.030;115.880;2022-11-23T13:21:30;12.73;;;1.50;;
72369;SDS011;60343;-32.030;115.880;2022-11-23T13:24:01;9.70;;;1.33;;
72369;SDS011;60343;-32.030;115.880;2022-11-23T13:26:30;12.15;;;1.70;;
72369;SDS011;60343;-32.030;115.880;2022-11-23T13:29:21;14.35;;;2.08;;
72369;SDS011;60343;-32.030;115.880;2022-11-23T13:44:18;14.05;;;1.90;;
72369;SDS011;60343;-32.030;115.880;2022-11-23T13:49:31;8.90;;;1.40;;
72369;SDS011;60343;-32.030;115.880;2022-11-23T13:52:22;15.52;;;1.70;;
72369;SDS011;60343;-32.030;115.880;2022-11-23T13:54:55;10.85;;;1.60;;
72369;SDS011;60343;-32.030;115.880;2022-11-23T13:57:27;13.27;;;1.50;;
72369;SDS011;60343;-32.030;115.880;2022-11-23T14:02:56;14.57;;;1.63;;
72369;SDS011;60343;-32.030;115.880;2022-11-23T14:05:59;10.88;;;1.80;;
72369;SDS011;60343;-32.030;115.880;2022-11-23T14:08:28;10.05;;;1.60;;
72369;SDS011;60343;-32.030;115.880;2022-11-23T14:10:58;14.10;;;2.47;;
72369;SDS011;60343;-32.030;115.880;2022-11-23T14:13:34;17.13;;;2.28;;
72369;SDS011;60343;-32.030;115.880;2022-11-23T14:16:02;16.10;;;2.03;;
72369;SDS011;60343;-32.030;115.880;2022-11-23T14:21:28;15.15;;;2.10;;
72369;SDS011;60343;-32.030;115.880;2022-11-23T14:24:19;18.92;;;2.15;;
72369;SDS011;60343;-32.030;115.880;2022-11-23T14:27:01;13.05;;;1.92;;
72369;SDS011;60343;-32.030;115.880;2022-11-23T14:29:56;15.85;;;1.90;;
72369;SDS011;60343;-32.030;115.880;2022-11-23T14:32:43;12.88;;;1.70;;
72369;SDS011;60343;-32.030;115.880;2022-11-23T14:35:23;11.30;;;1.65;;
72369;SDS011;60343;-32.030;115.880;2022-11-23T14:38:05;15.40;;;1.75;;
72369;SDS011;60343;-32.030;115.880;2022-11-23T14:40:56;13.68;;;1.65;;
72369;SDS011;60343;-32.030;115.880;2022-11-23T14:43:31;16.63;;;1.70;;
72369;SDS011;60343;-32.030;115.880;2022-11-23T14:46:01;19.55;;;2.10;;
72369;SDS011;60343;-32.030;115.880;2022-11-23T14:48:30;14.98;;;1.70;;
72369;SDS011;60343;-32.030;115.880;2022-11-23T14:50:59;14.68;;;1.85;;
72369;SDS011;60343;-32.030;115.880;2022-11-23T14:53:35;14.40;;;1.90;;
72369;SDS011;60343;-32.030;115.880;2022-11-23T14:56:14;20.70;;;2.35;;
72369;SDS011;60343;-32.030;115.880;2022-11-23T14:58:46;16.40;;;2.28;;
72369;SDS011;60343;-32.030;115.880;2022-11-23T15:01:17;13.07;;;1.42;;
72369;SDS011;60343;-32.030;115.880;2022-11-23T15:03:54;10.77;;;1.30;;